createdAt,value
2018-06-08T00:00:51.955Z,96746.16
2018-06-08T00:03:21.127Z,96740.25
2018-06-08T00:05:50.511Z,96732.95
2018-06-08T00:08:19.723Z,96738.77
2018-06-08T00:10:48.973Z,96741.23
2018-06-08T00:13:18.540Z,96735.80
2018-06-08T00:15:47.776Z,96730.87
2018-06-08T00:18:16.983Z,96732.56
2018-06-08T00:20:46.595Z,96732.83
2018-06-08T00:23:15.780Z,96738.14
2018-06-08T00:25:45.028Z,96735.30
2018-06-08T00:28:14.651Z,96736.06
2018-06-08T00:30:43.887Z,96736.06
2018-06-08T00:33:13.074Z,96731.77
2018-06-08T00:35:42.487Z,96735.08
2018-06-08T00:38:11.691Z,96727.95
2018-06-08T00:40:41.500Z,96729.73
2018-06-08T00:43:11.023Z,96724.94
2018-06-08T00:45:40.275Z,96715.92
2018-06-08T00:48:09.497Z,96715.17
2018-06-08T00:50:39.076Z,96705.53
2018-06-08T00:53:08.267Z,96703.75
2018-06-08T00:55:37.799Z,96704.98
2018-06-08T00:58:07.691Z,96706.34
2018-06-08T01:00:36.932Z,96700.78
2018-06-08T01:03:06.175Z,96705.20
2018-06-08T01:05:35.522Z,96702.70
2018-06-08T01:08:05.179Z,96709.75
2018-06-08T01:10:34.423Z,96712.08
2018-06-08T01:13:03.635Z,96703.75
2018-06-08T01:15:33.072Z,96700.73
2018-06-08T01:18:02.264Z,96704.55
2018-06-08T01:20:31.931Z,96703.45
2018-06-08T01:23:01.120Z,96711.48
2018-06-08T01:25:30.330Z,96704.94
2018-06-08T01:27:59.523Z,96706.22
2018-06-08T01:30:28.758Z,96703.45
2018-06-08T01:32:57.956Z,96705.53
2018-06-08T01:35:27.694Z,96709.00
2018-06-08T01:37:57.063Z,96713.41
2018-06-08T01:40:26.284Z,96714.08
2018-06-08T01:42:55.462Z,96706.45
2018-06-08T01:45:24.668Z,96708.11
2018-06-08T01:47:53.851Z,96710.36
2018-06-08T01:50:23.591Z,96712.30
2018-06-08T01:52:52.763Z,96714.05
2018-06-08T01:55:21.982Z,96720.44
2018-06-08T01:57:51.159Z,96712.70
2018-06-08T02:00:20.374Z,96718.27
2018-06-08T02:02:49.583Z,96721.11
2018-06-08T02:05:19.456Z,96716.28
2018-06-08T02:07:48.639Z,96712.59
2018-06-08T02:10:18.115Z,96715.05
2018-06-08T02:12:47.340Z,96716.54
2018-06-08T02:15:16.547Z,96716.67
2018-06-08T02:17:45.729Z,96717.05
2018-06-08T02:20:14.947Z,96720.62
2018-06-08T02:22:44.607Z,96713.78
2018-06-08T02:25:14.119Z,96707.42
2018-06-08T02:27:43.511Z,96711.50
2018-06-08T02:30:12.927Z,96708.36
2018-06-08T02:32:42.347Z,96705.69
2018-06-08T02:35:11.655Z,96703.86
2018-06-08T02:37:40.830Z,96704.70
2018-06-08T02:40:10.036Z,96709.88
2018-06-08T02:42:39.636Z,96710.77
2018-06-08T02:45:08.879Z,96711.48
2018-06-08T02:47:38.118Z,96717.47
2018-06-08T02:50:07.326Z,96713.56
2018-06-08T02:52:36.684Z,96721.06
2018-06-08T02:55:05.923Z,96715.94
2018-06-08T02:57:35.137Z,96709.49
2018-06-08T03:00:04.929Z,96717.45
2018-06-08T03:02:34.540Z,96718.91
2018-06-08T03:05:03.763Z,96715.53
2018-06-08T03:07:32.952Z,96721.55
2018-06-08T03:10:02.190Z,96715.83
2018-06-08T03:12:31.648Z,96711.94
2018-06-08T03:15:01.229Z,96710.45
2018-06-08T03:17:30.420Z,96711.51
2018-06-08T03:19:59.631Z,96711.20
2018-06-08T03:22:29.180Z,96707.55
2018-06-08T03:24:58.508Z,96701.95
2018-06-08T03:27:27.674Z,96706.02
2018-06-08T03:29:56.874Z,96706.02
2018-06-08T03:32:26.212Z,96709.20
2018-06-08T03:34:55.411Z,96709.83
2018-06-08T03:37:24.616Z,96715.30
2018-06-08T03:39:53.820Z,96710.54
2018-06-08T03:42:23.232Z,96715.52
2018-06-08T03:44:52.412Z,96710.64
2018-06-08T03:47:21.624Z,96701.39
2018-06-08T03:49:50.845Z,96696.81
2018-06-08T03:52:20.587Z,96709.83
2018-06-08T03:54:49.807Z,96714.20
2018-06-08T03:57:19.218Z,96718.06
2018-06-08T03:59:48.386Z,96714.80
2018-06-08T04:02:17.618Z,96717.66
2018-06-08T04:04:46.799Z,96715.34
2018-06-08T04:07:16.020Z,96711.87
2018-06-08T04:09:45.218Z,96710.25
2018-06-08T04:12:14.784Z,96706.75
2018-06-08T04:14:43.984Z,96705.27
2018-06-08T04:17:14.035Z,96708.92
2018-06-08T04:19:43.948Z,96708.86
2018-06-08T04:22:13.160Z,96705.03
2018-06-08T04:24:42.335Z,96708.05
2018-06-08T04:27:11.547Z,96698.34
2018-06-08T04:29:41.981Z,96703.30
2018-06-08T04:32:11.259Z,96703.09
2018-06-08T04:34:40.679Z,96713.40
2018-06-08T04:37:09.887Z,96722.34
2018-06-08T04:39:39.071Z,96720.52
2018-06-08T04:42:08.287Z,96726.50
2018-06-08T04:44:37.515Z,96726.30
2018-06-08T04:47:06.899Z,96726.43
2018-06-08T04:49:36.843Z,96717.16
2018-06-08T04:52:06.076Z,96718.38
2018-06-08T04:54:35.283Z,96724.78
2018-06-08T04:57:04.743Z,96727.53
2018-06-08T04:59:34.599Z,96727.34
2018-06-08T05:02:03.843Z,96730.78
2018-06-08T05:04:33.024Z,96720.69
2018-06-08T05:07:02.222Z,96724.55
2018-06-08T05:09:31.426Z,96726.34
2018-06-08T05:12:00.677Z,96722.33
2018-06-08T05:14:30.111Z,96730.53
2018-06-08T05:16:59.319Z,96730.75
2018-06-08T05:19:28.511Z,96730.06
2018-06-08T05:21:57.802Z,96733.36
2018-06-08T05:24:26.980Z,96731.61
2018-06-08T05:26:56.215Z,96732.79
2018-06-08T05:29:25.811Z,96731.14
2018-06-08T05:31:55.156Z,96731.98
2018-06-08T05:34:24.845Z,96737.68
2018-06-08T05:36:54.079Z,96741.11
2018-06-08T05:39:23.254Z,96745.74
2018-06-08T05:41:52.495Z,96745.38
2018-06-08T05:44:21.672Z,96745.79
2018-06-08T05:46:50.883Z,96729.73
2018-06-08T05:49:20.335Z,96728.80
2018-06-08T05:51:49.559Z,96729.98
2018-06-08T05:54:19.294Z,96735.43
2018-06-08T05:56:48.820Z,96735.59
2018-06-08T05:59:18.015Z,96735.66
2018-06-08T06:01:47.680Z,96749.12
2018-06-08T06:04:17.078Z,96749.28
2018-06-08T06:06:46.280Z,96755.62
2018-06-08T06:09:15.816Z,96754.64
2018-06-08T06:11:45.225Z,96754.50
2018-06-08T06:14:14.427Z,96761.23
2018-06-08T06:16:43.638Z,96760.57
2018-06-08T06:19:12.821Z,96765.33
2018-06-08T06:21:42.020Z,96767.00
2018-06-08T06:24:11.752Z,96762.25
2018-06-08T06:26:40.954Z,96763.33
2018-06-08T06:29:10.148Z,96763.87
2018-06-08T06:31:39.400Z,96765.16
2018-06-08T06:34:08.599Z,96753.70
2018-06-08T06:36:37.811Z,96765.88
2018-06-08T06:39:08.304Z,96758.91
2018-06-08T06:41:37.515Z,96756.50
2018-06-08T06:44:06.699Z,96756.25
2018-06-08T06:46:35.891Z,96759.70
2018-06-08T06:49:05.125Z,96766.84
2018-06-08T06:51:34.376Z,96764.28
2018-06-08T06:54:03.588Z,96763.17
2018-06-08T06:56:32.879Z,96753.47
2018-06-08T06:59:02.344Z,96754.01
2018-06-08T07:01:31.948Z,96754.49
2018-06-08T07:04:01.148Z,96759.36
2018-06-08T07:06:30.337Z,96768.24
2018-06-08T07:09:00.217Z,96767.13
2018-06-08T07:11:29.416Z,96771.53
2018-06-08T07:13:58.884Z,96769.27
2018-06-08T07:16:28.211Z,96774.79
2018-06-08T07:18:57.421Z,96769.25
2018-06-08T07:21:27.634Z,96772.95
2018-06-08T07:23:57.468Z,96771.94
2018-06-08T07:26:28.831Z,96773.70
2018-06-08T07:28:58.255Z,96777.96
2018-06-08T07:31:27.457Z,96772.67
2018-06-08T07:33:56.655Z,96773.96
2018-06-08T07:36:25.876Z,96770.99
2018-06-08T07:38:55.079Z,96769.94
2018-06-08T07:41:24.539Z,96774.47
2018-06-08T07:43:53.875Z,96783.47
2018-06-08T07:46:23.883Z,96785.13
2018-06-08T07:48:53.207Z,96779.37
2018-06-08T07:51:22.391Z,96780.03
2018-06-08T07:53:52.011Z,96777.14
2018-06-08T07:56:21.508Z,96781.95
2018-06-08T07:58:50.728Z,96778.24
2018-06-08T08:01:19.908Z,96777.32
2018-06-08T08:03:49.570Z,96780.84
2018-06-08T08:06:18.757Z,96784.67
2018-06-08T08:08:47.963Z,96784.45
2018-06-08T08:11:18.064Z,96773.97
2018-06-08T08:13:47.567Z,96759.02
2018-06-08T08:16:17.071Z,96766.78
2018-06-08T08:18:46.279Z,96769.47
2018-06-08T08:21:15.757Z,96772.27
2018-06-08T08:23:45.056Z,96775.48
2018-06-08T08:26:14.555Z,96777.80
2018-06-08T08:28:43.759Z,96764.48
2018-06-08T08:31:13.038Z,96756.95
2018-06-08T08:33:42.250Z,96766.45
2018-06-08T08:36:11.455Z,96759.13
2018-06-08T08:38:40.667Z,96770.20
2018-06-08T08:41:09.859Z,96761.77
2018-06-08T08:43:39.071Z,96764.97
2018-06-08T08:46:08.253Z,96755.27
2018-06-08T08:48:37.612Z,96760.91
2018-06-08T08:51:07.043Z,96753.42
2018-06-08T08:53:36.461Z,96752.78
2018-06-08T08:56:05.644Z,96749.13
2018-06-08T08:58:34.840Z,96751.41
2018-06-08T09:01:04.118Z,96751.19
2018-06-08T09:03:33.323Z,96756.54
2018-06-08T09:06:03.347Z,96756.34
2018-06-08T09:08:32.567Z,96752.89
2018-06-08T09:11:02.282Z,96756.89
2018-06-08T09:13:31.501Z,96753.25
2018-06-08T09:16:00.683Z,96758.92
2018-06-08T09:18:29.894Z,96761.44
2018-06-08T09:20:59.082Z,96757.67
2018-06-08T09:23:28.487Z,96751.72
2018-06-08T09:25:57.684Z,96751.28
2018-06-08T09:28:26.907Z,96752.50
2018-06-08T09:30:56.083Z,96757.34
2018-06-08T09:33:25.348Z,96753.90
2018-06-08T09:35:54.575Z,96750.34
2018-06-08T09:38:24.091Z,96752.13
2018-06-08T09:40:53.316Z,96753.79
2018-06-08T09:43:22.577Z,96749.89
2018-06-08T09:45:51.781Z,96743.25
2018-06-08T09:48:21.422Z,96748.41
2018-06-08T09:50:50.599Z,96746.86
2018-06-08T09:53:20.012Z,96743.84
2018-06-08T09:55:49.199Z,96748.76
2018-06-08T09:58:18.621Z,96743.05
2018-06-08T10:00:47.832Z,96745.19
2018-06-08T10:03:17.103Z,96744.92
2018-06-08T10:05:46.584Z,96740.69
2018-06-08T10:08:15.787Z,96742.75
2018-06-08T10:10:44.972Z,96741.49
2018-06-08T10:13:14.177Z,96740.57
2018-06-08T10:15:43.608Z,96746.49
2018-06-08T10:18:12.851Z,96742.59
2018-06-08T10:20:42.103Z,96739.52
2018-06-08T10:23:11.310Z,96751.04
2018-06-08T10:25:40.592Z,96742.34
2018-06-08T10:28:09.837Z,96740.25
2018-06-08T10:30:39.092Z,96734.81
2018-06-08T10:33:08.324Z,96736.33
2018-06-08T10:35:37.502Z,96731.41
2018-06-08T10:38:06.707Z,96729.70
2018-06-08T10:40:35.892Z,96728.76
2018-06-08T10:43:05.943Z,96731.58
2018-06-08T10:45:35.382Z,96730.17
2018-06-08T10:48:04.651Z,96725.20
2018-06-08T10:50:33.851Z,96725.79
2018-06-08T10:53:03.056Z,96723.72
2018-06-08T10:55:32.251Z,96722.66
2018-06-08T10:58:01.431Z,96715.36
2018-06-08T11:00:30.648Z,96724.84
2018-06-08T11:03:00.631Z,96726.89
2018-06-08T11:05:29.851Z,96721.20
2018-06-08T11:07:59.932Z,96728.67
2018-06-08T11:10:29.507Z,96716.53
2018-06-08T11:12:58.695Z,96718.94
2018-06-08T11:15:27.890Z,96714.09
2018-06-08T11:17:57.095Z,96710.59
2018-06-08T11:20:26.312Z,96714.78
2018-06-08T11:22:55.634Z,96706.80
2018-06-08T11:25:24.892Z,96707.77
2018-06-08T11:27:54.055Z,96706.17
2018-06-08T11:30:23.279Z,96694.35
2018-06-08T11:32:52.431Z,96694.89
2018-06-08T11:35:21.632Z,96687.81
2018-06-08T11:37:51.236Z,96699.28
2018-06-08T11:40:21.171Z,96688.06
2018-06-08T11:42:50.350Z,96682.66
2018-06-08T11:45:19.539Z,96673.09
2018-06-08T11:47:48.727Z,96675.94
2018-06-08T11:50:17.911Z,96667.06
2018-06-08T11:52:47.115Z,96668.34
2018-06-08T11:55:17.019Z,96657.84
2018-06-08T11:57:46.407Z,96660.48
2018-06-08T12:00:15.613Z,96654.14
2018-06-08T12:02:44.739Z,96656.54
2018-06-08T12:05:13.924Z,96648.33
2018-06-08T12:07:43.266Z,96650.80
2018-06-08T12:10:12.680Z,96655.09
2018-06-08T12:12:42.147Z,96649.52
2018-06-08T12:15:12.540Z,96638.42
2018-06-08T12:17:41.697Z,96639.30
2018-06-08T12:20:11.119Z,96644.34
2018-06-08T12:22:40.288Z,96639.91
2018-06-08T12:25:09.471Z,96637.70
2018-06-08T12:27:38.659Z,96629.98
2018-06-08T12:30:07.851Z,96627.53
2018-06-08T12:32:36.996Z,96624.45
2018-06-08T12:35:06.228Z,96619.77
2018-06-08T12:37:35.688Z,96623.38
2018-06-08T12:40:05.236Z,96611.19
2018-06-08T12:42:34.416Z,96615.97
2018-06-08T12:45:03.735Z,96614.94
2018-06-08T12:47:33.154Z,96615.99
2018-06-08T12:50:02.324Z,96611.45
2018-06-08T12:52:31.723Z,96612.05
2018-06-08T12:55:01.023Z,96612.98
2018-06-08T12:57:30.270Z,96617.25
2018-06-08T13:00:00.400Z,96613.39
2018-06-08T13:02:29.560Z,96621.72
2018-06-08T13:04:58.749Z,96607.13
2018-06-08T13:07:27.903Z,96602.23
2018-06-08T13:09:57.227Z,96610.10
2018-06-08T13:12:26.397Z,96608.01
2018-06-08T13:14:55.595Z,96608.22
2018-06-08T13:17:24.779Z,96604.39
2018-06-08T13:19:54.095Z,96607.84
2018-06-08T13:22:23.268Z,96610.01
2018-06-08T13:24:52.561Z,96607.53
2018-06-08T13:27:21.976Z,96615.72
2018-06-08T13:29:51.170Z,96610.42
2018-06-08T13:32:20.903Z,96604.37
2018-06-08T13:34:50.235Z,96619.53
2018-06-08T13:37:19.631Z,96606.88
2018-06-08T13:39:48.831Z,96607.23
2018-06-08T13:42:18.230Z,96608.15
2018-06-08T13:44:47.432Z,96604.34
2018-06-08T13:47:16.612Z,96602.06
2018-06-08T13:49:45.823Z,96602.30
2018-06-08T13:52:15.020Z,96605.41
2018-06-08T13:54:44.219Z,96605.61
2018-06-08T13:57:13.415Z,96614.33
2018-06-08T13:59:42.594Z,96608.51
2018-06-08T14:02:11.763Z,96611.34
2018-06-08T14:04:40.947Z,96608.06
2018-06-08T14:07:10.120Z,96609.80
2018-06-08T14:09:39.585Z,96605.33
2018-06-08T14:12:08.768Z,96609.37
2018-06-08T14:14:37.935Z,96614.76
2018-06-08T14:17:07.563Z,96608.36
2018-06-08T14:19:36.756Z,96605.75
2018-06-08T14:22:05.948Z,96596.28
2018-06-08T14:24:35.111Z,96599.36
2018-06-08T14:27:04.339Z,96601.59
2018-06-08T14:29:33.735Z,96595.45
2018-06-08T14:32:03.860Z,96598.08
2018-06-08T14:34:33.028Z,96591.49
2018-06-08T14:37:02.534Z,96583.97
2018-06-08T14:39:31.691Z,96579.80
2018-06-08T14:42:01.340Z,96577.34
2018-06-08T14:44:30.636Z,96573.33
2018-06-08T14:46:59.812Z,96570.54
2018-06-08T14:49:31.849Z,96576.36
2018-06-08T14:52:01.367Z,96575.44
2018-06-08T14:54:30.658Z,96576.49
2018-06-08T14:56:59.843Z,96575.95
2018-06-08T14:59:29.033Z,96567.95
2018-06-08T15:01:58.392Z,96577.42
2018-06-08T15:04:27.714Z,96574.92
2018-06-08T15:06:56.898Z,96580.27
2018-06-08T15:09:26.087Z,96580.08
2018-06-08T15:11:55.300Z,96573.75
2018-06-08T15:14:24.931Z,96573.42
2018-06-08T15:16:54.147Z,96575.62
2018-06-08T15:19:23.323Z,96565.59
2018-06-08T15:21:52.527Z,96559.17
2018-06-08T15:24:26.666Z,96557.97
2018-06-08T15:26:55.943Z,96553.75
2018-06-08T15:29:25.143Z,96555.95
2018-06-08T15:31:54.283Z,96562.02
2018-06-08T15:34:23.456Z,96558.37
2018-06-08T15:36:52.643Z,96558.05
2018-06-08T15:39:21.812Z,96550.44
2018-06-08T15:41:51.507Z,96546.43
2018-06-08T15:44:20.699Z,96545.66
2018-06-08T15:46:49.895Z,96550.11
2018-06-08T15:49:19.067Z,96544.42
2018-06-08T15:51:48.472Z,96534.14
2018-06-08T15:54:17.661Z,96531.48
2018-06-08T15:56:46.859Z,96522.37
2018-06-08T15:59:16.024Z,96532.46
2018-06-08T16:01:45.220Z,96529.80
2018-06-08T16:04:14.444Z,96527.27
2018-06-08T16:06:43.643Z,96521.84
2018-06-08T16:09:13.931Z,96518.83
2018-06-08T16:11:43.595Z,96521.55
2018-06-08T16:14:12.809Z,96514.52
2018-06-08T16:16:41.996Z,96504.91
2018-06-08T16:19:11.159Z,96511.48
2018-06-08T16:21:40.355Z,96509.65
2018-06-08T16:24:09.511Z,96516.74
2018-06-08T16:26:38.719Z,96528.05
2018-06-08T16:29:07.930Z,96531.90
2018-06-08T16:31:37.492Z,96532.27
2018-06-08T16:34:06.684Z,96536.30
2018-06-08T16:36:35.902Z,96537.55
2018-06-08T16:39:07.414Z,96549.80
2018-06-08T16:41:36.580Z,96548.03
2018-06-08T16:44:06.019Z,96549.05
2018-06-08T16:46:35.553Z,96551.44
2018-06-08T16:49:04.756Z,96554.91
2018-06-08T16:51:33.930Z,96559.01
2018-06-08T16:54:03.319Z,96565.75
2018-06-08T16:56:32.539Z,96558.45
2018-06-08T16:59:02.071Z,96558.84
2018-06-08T17:01:31.555Z,96562.25
2018-06-08T17:04:01.507Z,96553.64
2018-06-08T17:06:30.686Z,96550.27
2018-06-08T17:08:59.843Z,96552.51
2018-06-08T17:11:29.044Z,96554.89
2018-06-08T17:13:58.557Z,96558.23
2018-06-08T17:16:27.745Z,96562.20
2018-06-08T17:18:56.907Z,96568.72
2018-06-08T17:21:26.108Z,96567.91
2018-06-08T17:23:55.540Z,96572.71
2018-06-08T17:26:25.120Z,96580.03
2018-06-08T17:28:54.291Z,96577.74
2018-06-08T17:31:23.583Z,96578.21
2018-06-08T17:33:52.771Z,96588.95
2018-06-08T17:36:22.003Z,96589.42
2018-06-08T17:38:51.191Z,96600.53
2018-06-08T17:41:20.578Z,96603.54
2018-06-08T17:43:49.739Z,96604.50
2018-06-08T17:46:18.932Z,96613.61
2018-06-08T17:48:48.120Z,96614.17
2018-06-08T17:51:17.531Z,96613.62
2018-06-08T17:53:46.684Z,96614.08
2018-06-08T17:56:15.848Z,96612.16
2018-06-08T17:58:45.047Z,96611.02
2018-06-08T18:01:14.199Z,96613.19
2018-06-08T18:03:43.396Z,96610.41
2018-06-08T18:06:12.637Z,96606.11
2018-06-08T18:08:41.795Z,96602.23
2018-06-08T18:11:10.967Z,96598.14
2018-06-08T18:13:40.153Z,96598.14
2018-06-08T18:16:09.319Z,96599.50
2018-06-08T18:18:38.531Z,96594.83
2018-06-08T18:21:08.098Z,96590.83
2018-06-08T18:23:37.275Z,96589.46
2018-06-08T18:26:06.480Z,96587.63
2018-06-08T18:28:35.671Z,96578.27
2018-06-08T18:31:04.844Z,96576.57
2018-06-08T18:33:34.036Z,96582.38
2018-06-08T18:36:03.223Z,96580.67
2018-06-08T18:38:32.619Z,96584.89
2018-06-08T18:41:01.803Z,96591.02
2018-06-08T18:43:31.051Z,96595.53
2018-06-08T18:46:00.772Z,96597.98
2018-06-08T18:48:29.963Z,96601.64
2018-06-08T18:50:59.127Z,96602.00
2018-06-08T18:53:28.310Z,96605.05
2018-06-08T18:55:57.492Z,96600.05
2018-06-08T18:58:26.676Z,96611.20
2018-06-08T19:00:55.860Z,96615.75
2018-06-08T19:03:25.035Z,96615.66
2018-06-08T19:05:54.211Z,96620.39
2018-06-08T19:08:23.423Z,96624.37
2018-06-08T19:10:53.218Z,96625.23
2018-06-08T19:13:22.427Z,96627.73
2018-06-08T19:15:51.821Z,96621.56
2018-06-08T19:18:21.013Z,96624.20
2018-06-08T19:20:50.171Z,96628.62
2018-06-08T19:23:19.611Z,96626.58
2018-06-08T19:25:48.763Z,96632.89
2018-06-08T19:28:17.943Z,96620.33
2018-06-08T19:30:47.157Z,96622.58
2018-06-08T19:33:16.291Z,96620.30
2018-06-08T19:35:45.458Z,96628.61
2018-06-08T19:38:14.643Z,96626.56
2018-06-08T19:40:44.611Z,96628.38
2018-06-08T19:43:13.788Z,96632.86
2018-06-08T19:45:43.106Z,96634.66
2018-06-08T19:48:12.403Z,96634.58
2018-06-08T19:50:41.563Z,96636.17
2018-06-08T19:53:11.089Z,96631.72
2018-06-08T19:55:40.267Z,96639.09
2018-06-08T19:58:12.479Z,96642.02
2018-06-08T20:00:42.360Z,96642.39
2018-06-08T20:03:11.546Z,96649.48
2018-06-08T20:05:40.736Z,96652.68
2018-06-08T20:08:10.171Z,96654.55
2018-06-08T20:10:39.331Z,96658.65
2018-06-08T20:13:09.139Z,96665.47
2018-06-08T20:15:38.291Z,96664.17
2018-06-08T20:18:07.476Z,96664.91
2018-06-08T20:20:36.631Z,96668.94
2018-06-08T20:23:06.146Z,96670.64
2018-06-08T20:25:35.332Z,96675.71
2018-06-08T20:28:04.563Z,96671.80
2018-06-08T20:30:33.723Z,96674.91
2018-06-08T20:33:03.257Z,96672.36
2018-06-08T20:35:32.421Z,96673.26
2018-06-08T20:38:01.591Z,96668.69
2018-06-08T20:40:30.756Z,96680.08
2018-06-08T20:42:59.944Z,96678.22
2018-06-08T20:45:29.119Z,96670.46
2018-06-08T20:47:58.295Z,96665.89
2018-06-08T20:50:27.641Z,96662.36
2018-06-08T20:52:57.212Z,96664.91
2018-06-08T20:55:26.388Z,96658.66
2018-06-08T20:58:00.143Z,96660.02
2018-06-08T21:00:29.315Z,96652.87
2018-06-08T21:02:58.519Z,96657.86
2018-06-08T21:05:28.105Z,96651.39
2018-06-08T21:07:57.295Z,96652.12
2018-06-08T21:10:26.783Z,96646.94
2018-06-08T21:12:55.976Z,96634.38
2018-06-08T21:15:25.127Z,96639.89
2018-06-08T21:17:54.306Z,96641.90
2018-06-08T21:20:23.495Z,96655.34
2018-06-08T21:22:52.787Z,96657.73
2018-06-08T21:25:22.307Z,96657.41
2018-06-08T21:27:51.672Z,96650.53
2018-06-08T21:30:21.474Z,96643.72
2018-06-08T21:32:50.663Z,96651.96
2018-06-08T21:35:19.833Z,96656.94
2018-06-08T21:37:49.672Z,96654.44
2018-06-08T21:40:19.412Z,96657.53
2018-06-08T21:42:48.660Z,96650.33
2018-06-08T21:45:17.864Z,96647.27
2018-06-08T21:47:47.503Z,96638.48
2018-06-08T21:50:16.924Z,96637.66
2018-06-08T21:52:46.108Z,96638.61
2018-06-08T21:55:15.326Z,96640.92
2018-06-08T21:57:44.743Z,96637.55
2018-06-08T22:00:15.435Z,96640.61
2018-06-08T22:02:44.626Z,96640.51
2018-06-08T22:05:13.859Z,96643.53
2018-06-08T22:07:43.228Z,96638.66
2018-06-08T22:10:12.454Z,96643.98
2018-06-08T22:12:41.668Z,96646.34
2018-06-08T22:15:10.880Z,96643.66
2018-06-08T22:17:40.056Z,96637.36
2018-06-08T22:20:09.247Z,96634.28
2018-06-08T22:22:38.424Z,96629.95
2018-06-08T22:25:07.908Z,96630.38
2018-06-08T22:27:37.115Z,96641.13
2018-06-08T22:30:06.309Z,96646.95
2018-06-08T22:32:35.483Z,96642.59
2018-06-08T22:35:04.911Z,96644.77
2018-06-08T22:37:34.363Z,96646.64
2018-06-08T22:40:03.719Z,96642.73
2018-06-08T22:42:32.874Z,96641.46
2018-06-08T22:45:02.088Z,96641.63
2018-06-08T22:47:31.259Z,96636.38
2018-06-08T22:50:00.456Z,96632.77
2018-06-08T22:52:29.736Z,96632.61
2018-06-08T22:54:59.068Z,96636.79
2018-06-08T22:57:28.361Z,96633.92
2018-06-08T22:59:57.914Z,96637.91
2018-06-08T23:02:27.122Z,96638.34
2018-06-08T23:04:56.315Z,96632.99
2018-06-08T23:07:25.483Z,96622.91
2018-06-08T23:09:54.663Z,96622.44
2018-06-08T23:12:23.819Z,96621.94
2018-06-08T23:14:53.009Z,96613.78
2018-06-08T23:17:23.391Z,96618.10
2018-06-08T23:19:52.595Z,96618.66
2018-06-08T23:22:21.775Z,96619.48
2018-06-08T23:24:50.987Z,96619.47
2018-06-08T23:27:20.372Z,96615.88
2018-06-08T23:29:49.915Z,96615.33
2018-06-08T23:32:19.099Z,96604.90
2018-06-08T23:34:48.608Z,96613.05
2018-06-08T23:37:17.799Z,96616.43
2018-06-08T23:39:47.000Z,96611.78
2018-06-08T23:42:16.455Z,96614.44
2018-06-08T23:44:45.651Z,96619.00
2018-06-08T23:47:14.868Z,96618.44
2018-06-08T23:49:44.094Z,96616.28
2018-06-08T23:52:13.279Z,96616.35
2018-06-08T23:54:42.483Z,96616.11
2018-06-08T23:57:11.898Z,96611.95
2018-06-08T23:59:41.087Z,96613.62
